sensor_id;sensor_type;location;lat;lon;timestamp;pressure;altitude;pressure_sealevel;temperature;humidity
57290;BME280;43523;53.022;-1.178;2024-03-22T00:00:00;101040.75;;;6.91;100.00
57290;BME280;43523;53.022;-1.178;2024-03-22T00:01:02;101037.72;;;6.77;100.00
57290;BME280;43523;53.022;-1.178;2024-03-22T00:02:04;101038.56;;;6.61;100.00
57290;BME280;43523;53.022;-1.178;2024-03-22T00:03:07;101033.04;;;6.91;100.00
57290;BME280;43523;53.022;-1.178;2024-03-22T00:04:09;101038.32;;;6.69;100.00
57290;BME280;43523;53.022;-1.178;2024-03-22T00:05:11;101031.18;;;6.67;100.00
57290;BME280;43523;53.022;-1.178;2024-03-22T00:06:14;101035.87;;;6.68;100.00
57290;BME280;43523;53.022;-1.178;2024-03-22T00:07:16;101031.01;;;7.10;100.00
57290;BME280;43523;53.022;-1.178;2024-03-22T00:08:19;101021.07;;;7.05;100.00
57290;BME280;43523;53.022;-1.178;2024-03-22T00:09:21;101022.03;;;7.13;100.00
57290;BME280;43523;53.022;-1.178;2024-03-22T00:10:24;101025.93;;;6.57;100.00
57290;BME280;43523;53.022;-1.178;2024-03-22T00:11:27;101022.35;;;6.34;100.00
57290;BME280;43523;53.022;-1.178;2024-03-22T00:12:29;101028.11;;;6.74;100.00
57290;BME280;43523;53.022;-1.178;2024-03-22T00:13:32;101032.07;;;6.42;100.00
57290;BME280;43523;53.022;-1.178;2024-03-22T00:14:35;101027.57;;;6.50;100.00
57290;BME280;43523;53.022;-1.178;2024-03-22T00:15:38;101021.43;;;6.54;100.00
57290;BME280;43523;53.022;-1.178;2024-03-22T00:16:40;101025.31;;;6.64;100.00
57290;BME280;43523;53.022;-1.178;2024-03-22T00:17:45;101023.17;;;6.64;100.00
57290;BME280;43523;53.022;-1.178;2024-03-22T00:18:52;101025.89;;;6.75;100.00
57290;BME280;43523;53.022;-1.178;2024-03-22T00:19:54;101018.71;;;6.69;100.00
57290;BME280;43523;53.022;-1.178;2024-03-22T00:20:57;101023.54;;;6.76;100.00
57290;BME280;43523;53.022;-1.178;2024-03-22T00:21:59;101025.53;;;6.54;100.00
57290;BME280;43523;53.022;-1.178;2024-03-22T00:23:02;101023.82;;;6.89;100.00
57290;BME280;43523;53.022;-1.178;2024-03-22T00:24:04;101027.85;;;6.74;100.00
57290;BME280;43523;53.022;-1.178;2024-03-22T00:25:07;101024.15;;;7.00;100.00
57290;BME280;43523;53.022;-1.178;2024-03-22T00:26:10;101023.07;;;6.81;100.00
57290;BME280;43523;53.022;-1.178;2024-03-22T00:27:12;101015.21;;;6.62;100.00
57290;BME280;43523;53.022;-1.178;2024-03-22T00:28:15;101022.54;;;6.39;100.00
57290;BME280;43523;53.022;-1.178;2024-03-22T00:29:17;101026.52;;;6.45;100.00
57290;BME280;43523;53.022;-1.178;2024-03-22T00:30:20;101019.06;;;6.76;100.00
57290;BME280;43523;53.022;-1.178;2024-03-22T00:31:22;101021.69;;;6.84;100.00
57290;BME280;43523;53.022;-1.178;2024-03-22T00:32:27;101020.95;;;7.24;100.00
57290;BME280;43523;53.022;-1.178;2024-03-22T00:33:29;101020.36;;;6.95;100.00
57290;BME280;43523;53.022;-1.178;2024-03-22T00:34:32;101022.13;;;6.32;100.00
57290;BME280;43523;53.022;-1.178;2024-03-22T00:35:34;101015.80;;;6.55;100.00
57290;BME280;43523;53.022;-1.178;2024-03-22T00:36:37;101019.90;;;7.16;100.00
57290;BME280;43523;53.022;-1.178;2024-03-22T00:37:39;101026.02;;;6.85;100.00
57290;BME280;43523;53.022;-1.178;2024-03-22T00:38:42;101017.77;;;6.67;100.00
57290;BME280;43523;53.022;-1.178;2024-03-22T00:39:44;101029.29;;;6.20;100.00
57290;BME280;43523;53.022;-1.178;2024-03-22T00:40:47;101018.82;;;6.35;100.00
57290;BME280;43523;53.022;-1.178;2024-03-22T00:41:49;101016.09;;;6.53;100.00
57290;BME280;43523;53.022;-1.178;2024-03-22T00:42:52;101015.75;;;6.79;100.00
57290;BME280;43523;53.022;-1.178;2024-03-22T00:43:54;101013.97;;;6.49;100.00
57290;BME280;43523;53.022;-1.178;2024-03-22T00:44:57;101021.36;;;6.83;100.00
57290;BME280;43523;53.022;-1.178;2024-03-22T00:46:00;101015.99;;;6.29;100.00
57290;BME280;43523;53.022;-1.178;2024-03-22T00:47:04;101006.46;;;6.68;100.00
57290;BME280;43523;53.022;-1.178;2024-03-22T00:48:06;101005.18;;;6.47;100.00
57290;BME280;43523;53.022;-1.178;2024-03-22T00:49:08;100999.64;;;7.13;100.00
57290;BME280;43523;53.022;-1.178;2024-03-22T00:50:11;101003.04;;;6.56;100.00
57290;BME280;43523;53.022;-1.178;2024-03-22T00:51:14;101000.84;;;6.63;100.00
57290;BME280;43523;53.022;-1.178;2024-03-22T00:52:16;100999.16;;;6.57;100.00
57290;BME280;43523;53.022;-1.178;2024-03-22T00:53:25;100999.16;;;6.67;100.00
57290;BME280;43523;53.022;-1.178;2024-03-22T00:54:28;100993.71;;;6.68;100.00
57290;BME280;43523;53.022;-1.178;2024-03-22T00:55:30;100998.56;;;6.49;100.00
57290;BME280;43523;53.022;-1.178;2024-03-22T00:56:32;100995.67;;;6.51;100.00
57290;BME280;43523;53.022;-1.178;2024-03-22T00:57:35;100989.72;;;6.32;100.00
57290;BME280;43523;53.022;-1.178;2024-03-22T00:58:37;100986.21;;;6.36;100.00
57290;BME280;43523;53.022;-1.178;2024-03-22T00:59:39;100989.24;;;7.02;100.00
57290;BME280;43523;53.022;-1.178;2024-03-22T01:01:56;100988.28;;;6.49;100.00
57290;BME280;43523;53.022;-1.178;2024-03-22T01:03:01;100991.09;;;6.35;100.00
57290;BME280;43523;53.022;-1.178;2024-03-22T01:04:07;100984.19;;;6.35;100.00
57290;BME280;43523;53.022;-1.178;2024-03-22T01:05:10;100984.59;;;6.72;100.00
57290;BME280;43523;53.022;-1.178;2024-03-22T01:06:13;100986.44;;;6.75;100.00
57290;BME280;43523;53.022;-1.178;2024-03-22T01:07:16;100987.97;;;6.86;100.00
57290;BME280;43523;53.022;-1.178;2024-03-22T01:08:23;100988.04;;;6.66;100.00
57290;BME280;43523;53.022;-1.178;2024-03-22T01:09:25;100990.41;;;6.77;100.00
57290;BME280;43523;53.022;-1.178;2024-03-22T01:10:28;100991.97;;;7.13;100.00
57290;BME280;43523;53.022;-1.178;2024-03-22T01:11:32;100994.61;;;6.60;100.00
57290;BME280;43523;53.022;-1.178;2024-03-22T01:12:35;100993.22;;;6.69;100.00
57290;BME280;43523;53.022;-1.178;2024-03-22T01:13:37;100993.28;;;7.26;100.00
57290;BME280;43523;53.022;-1.178;2024-03-22T01:14:40;100998.76;;;6.63;100.00
57290;BME280;43523;53.022;-1.178;2024-03-22T01:15:43;100992.05;;;6.80;100.00
57290;BME280;43523;53.022;-1.178;2024-03-22T01:16:45;100993.54;;;6.39;100.00
57290;BME280;43523;53.022;-1.178;2024-03-22T01:17:48;100995.24;;;6.72;100.00
57290;BME280;43523;53.022;-1.178;2024-03-22T01:18:51;100990.90;;;6.89;100.00
57290;BME280;43523;53.022;-1.178;2024-03-22T01:19:53;100990.57;;;6.66;100.00
57290;BME280;43523;53.022;-1.178;2024-03-22T01:20:56;100986.17;;;6.71;100.00
57290;BME280;43523;53.022;-1.178;2024-03-22T01:21:58;100986.93;;;6.62;100.00
57290;BME280;43523;53.022;-1.178;2024-03-22T01:23:01;100987.69;;;6.40;100.00
57290;BME280;43523;53.022;-1.178;2024-03-22T01:24:04;100985.51;;;6.65;100.00
57290;BME280;43523;53.022;-1.178;2024-03-22T01:25:07;100982.66;;;6.83;100.00
57290;BME280;43523;53.022;-1.178;2024-03-22T01:26:10;100982.82;;;6.80;100.00
57290;BME280;43523;53.022;-1.178;2024-03-22T01:27:12;100980.56;;;6.83;100.00
57290;BME280;43523;53.022;-1.178;2024-03-22T01:28:14;100974.07;;;6.74;100.00
57290;BME280;43523;53.022;-1.178;2024-03-22T01:29:17;100974.73;;;6.83;100.00
57290;BME280;43523;53.022;-1.178;2024-03-22T01:30:19;100971.16;;;6.68;100.00
57290;BME280;43523;53.022;-1.178;2024-03-22T01:31:22;100968.81;;;6.76;100.00
57290;BME280;43523;53.022;-1.178;2024-03-22T01:32:24;100969.71;;;6.56;100.00
57290;BME280;43523;53.022;-1.178;2024-03-22T01:33:32;100967.01;;;6.68;100.00
57290;BME280;43523;53.022;-1.178;2024-03-22T01:34:34;100971.58;;;7.29;100.00
57290;BME280;43523;53.022;-1.178;2024-03-22T01:35:36;100971.71;;;6.41;100.00
57290;BME280;43523;53.022;-1.178;2024-03-22T01:36:39;100970.86;;;6.94;100.00
57290;BME280;43523;53.022;-1.178;2024-03-22T01:37:42;100967.18;;;7.03;100.00
57290;BME280;43523;53.022;-1.178;2024-03-22T01:38:44;100972.57;;;6.77;100.00
57290;BME280;43523;53.022;-1.178;2024-03-22T01:39:47;100969.61;;;6.89;100.00
57290;BME280;43523;53.022;-1.178;2024-03-22T01:40:49;100970.73;;;7.07;100.00
57290;BME280;43523;53.022;-1.178;2024-03-22T01:41:52;100966.91;;;6.60;100.00
57290;BME280;43523;53.022;-1.178;2024-03-22T01:42:55;100976.53;;;6.38;100.00
57290;BME280;43523;53.022;-1.178;2024-03-22T01:43:58;100969.38;;;6.66;100.00
57290;BME280;43523;53.022;-1.178;2024-03-22T01:45:11;100975.75;;;6.49;100.00
57290;BME280;43523;53.022;-1.178;2024-03-22T01:46:13;100969.32;;;6.68;100.00
57290;BME280;43523;53.022;-1.178;2024-03-22T01:47:16;100969.34;;;6.66;100.00
57290;BME280;43523;53.022;-1.178;2024-03-22T01:48:18;100971.82;;;6.44;100.00
57290;BME280;43523;53.022;-1.178;2024-03-22T01:49:21;100965.28;;;6.56;100.00
57290;BME280;43523;53.022;-1.178;2024-03-22T01:50:24;100963.04;;;6.54;100.00
57290;BME280;43523;53.022;-1.178;2024-03-22T01:51:26;100957.69;;;6.62;100.00
57290;BME280;43523;53.022;-1.178;2024-03-22T01:52:29;100970.82;;;6.52;100.00
57290;BME280;43523;53.022;-1.178;2024-03-22T01:53:34;100959.14;;;6.27;100.00
57290;BME280;43523;53.022;-1.178;2024-03-22T01:54:36;100961.17;;;6.27;100.00
57290;BME280;43523;53.022;-1.178;2024-03-22T01:55:38;100962.99;;;6.52;100.00
57290;BME280;43523;53.022;-1.178;2024-03-22T01:56:41;100959.95;;;6.53;100.00
57290;BME280;43523;53.022;-1.178;2024-03-22T01:57:44;100960.98;;;6.47;100.00
57290;BME280;43523;53.022;-1.178;2024-03-22T01:58:46;100962.43;;;6.30;100.00
57290;BME280;43523;53.022;-1.178;2024-03-22T01:59:51;100962.21;;;6.48;100.00
57290;BME280;43523;53.022;-1.178;2024-03-22T02:00:55;100963.18;;;6.22;100.00
57290;BME280;43523;53.022;-1.178;2024-03-22T02:01:58;100962.83;;;6.72;100.00
57290;BME280;43523;53.022;-1.178;2024-03-22T02:03:01;100961.44;;;6.88;100.00
57290;BME280;43523;53.022;-1.178;2024-03-22T02:04:05;100962.70;;;6.49;100.00
57290;BME280;43523;53.022;-1.178;2024-03-22T02:05:14;100957.58;;;6.50;100.00
57290;BME280;43523;53.022;-1.178;2024-03-22T02:06:17;100955.52;;;6.08;100.00
57290;BME280;43523;53.022;-1.178;2024-03-22T02:07:19;100952.50;;;6.23;100.00
57290;BME280;43523;53.022;-1.178;2024-03-22T02:08:21;100950.29;;;6.59;100.00
57290;BME280;43523;53.022;-1.178;2024-03-22T02:09:25;100954.80;;;6.38;100.00
57290;BME280;43523;53.022;-1.178;2024-03-22T02:10:27;100951.09;;;6.65;100.00
57290;BME280;43523;53.022;-1.178;2024-03-22T02:11:30;100954.40;;;6.56;100.00
57290;BME280;43523;53.022;-1.178;2024-03-22T02:12:32;100948.53;;;7.01;100.00
57290;BME280;43523;53.022;-1.178;2024-03-22T02:13:35;100954.22;;;6.75;100.00
57290;BME280;43523;53.022;-1.178;2024-03-22T02:14:37;100952.94;;;6.40;100.00
57290;BME280;43523;53.022;-1.178;2024-03-22T02:15:39;100952.12;;;6.53;100.00
57290;BME280;43523;53.022;-1.178;2024-03-22T02:16:42;100958.96;;;6.30;100.00
57290;BME280;43523;53.022;-1.178;2024-03-22T02:17:44;100954.81;;;6.50;100.00
57290;BME280;43523;53.022;-1.178;2024-03-22T02:18:46;100956.17;;;6.67;100.00
57290;BME280;43523;53.022;-1.178;2024-03-22T02:19:49;100959.06;;;6.53;100.00
57290;BME280;43523;53.022;-1.178;2024-03-22T02:20:52;100963.07;;;6.62;100.00
57290;BME280;43523;53.022;-1.178;2024-03-22T02:21:54;100960.99;;;6.39;100.00
57290;BME280;43523;53.022;-1.178;2024-03-22T02:22:56;100952.82;;;6.73;100.00
57290;BME280;43523;53.022;-1.178;2024-03-22T02:23:59;100962.33;;;6.58;100.00
57290;BME280;43523;53.022;-1.178;2024-03-22T02:25:02;100964.06;;;6.59;100.00
57290;BME280;43523;53.022;-1.178;2024-03-22T02:26:05;100961.42;;;6.59;100.00
57290;BME280;43523;53.022;-1.178;2024-03-22T02:27:07;100967.10;;;6.42;100.00
57290;BME280;43523;53.022;-1.178;2024-03-22T02:28:10;100967.94;;;6.56;100.00
57290;BME280;43523;53.022;-1.178;2024-03-22T02:29:13;100961.62;;;6.51;100.00
57290;BME280;43523;53.022;-1.178;2024-03-22T02:30:16;100962.78;;;6.77;100.00
57290;BME280;43523;53.022;-1.178;2024-03-22T02:31:18;100962.56;;;6.27;100.00
57290;BME280;43523;53.022;-1.178;2024-03-22T02:32:20;100964.03;;;6.13;100.00
57290;BME280;43523;53.022;-1.178;2024-03-22T02:33:23;100959.62;;;6.08;100.00
57290;BME280;43523;53.022;-1.178;2024-03-22T02:34:25;100963.39;;;6.29;100.00
57290;BME280;43523;53.022;-1.178;2024-03-22T02:35:28;100960.67;;;6.65;100.00
57290;BME280;43523;53.022;-1.178;2024-03-22T02:36:30;100966.19;;;6.16;100.00
57290;BME280;43523;53.022;-1.178;2024-03-22T02:37:32;100967.47;;;6.21;100.00
57290;BME280;43523;53.022;-1.178;2024-03-22T02:38:35;100966.16;;;6.26;100.00
57290;BME280;43523;53.022;-1.178;2024-03-22T02:39:37;100960.05;;;6.21;100.00
57290;BME280;43523;53.022;-1.178;2024-03-22T02:40:42;100962.98;;;6.08;100.00
57290;BME280;43523;53.022;-1.178;2024-03-22T02:41:45;100968.26;;;6.13;100.00
57290;BME280;43523;53.022;-1.178;2024-03-22T02:42:47;100967.50;;;6.24;100.00
57290;BME280;43523;53.022;-1.178;2024-03-22T02:43:51;100970.19;;;6.09;100.00
57290;BME280;43523;53.022;-1.178;2024-03-22T02:44:53;100978.59;;;6.42;100.00
57290;BME280;43523;53.022;-1.178;2024-03-22T02:45:55;100975.03;;;6.26;100.00
57290;BME280;43523;53.022;-1.178;2024-03-22T02:46:58;100982.37;;;6.19;100.00
57290;BME280;43523;53.022;-1.178;2024-03-22T02:48:00;100971.44;;;6.27;100.00
57290;BME280;43523;53.022;-1.178;2024-03-22T02:49:02;100968.19;;;6.29;100.00
57290;BME280;43523;53.022;-1.178;2024-03-22T02:50:06;100988.74;;;6.06;100.00
57290;BME280;43523;53.022;-1.178;2024-03-22T02:51:09;100981.07;;;6.22;100.00
57290;BME280;43523;53.022;-1.178;2024-03-22T02:52:12;100978.90;;;6.02;100.00
57290;BME280;43523;53.022;-1.178;2024-03-22T02:53:14;100975.16;;;6.12;100.00
57290;BME280;43523;53.022;-1.178;2024-03-22T02:54:16;100975.16;;;6.10;100.00
57290;BME280;43523;53.022;-1.178;2024-03-22T02:55:19;100974.06;;;6.14;100.00
57290;BME280;43523;53.022;-1.178;2024-03-22T02:56:21;100983.32;;;6.12;100.00
57290;BME280;43523;53.022;-1.178;2024-03-22T02:57:23;100988.39;;;6.16;100.00
57290;BME280;43523;53.022;-1.178;2024-03-22T02:58:26;100983.68;;;6.15;100.00
57290;BME280;43523;53.022;-1.178;2024-03-22T02:59:28;100984.26;;;6.62;100.00
57290;BME280;43523;53.022;-1.178;2024-03-22T03:00:31;100997.24;;;6.29;100.00
57290;BME280;43523;53.022;-1.178;2024-03-22T03:01:33;100993.14;;;6.07;100.00
57290;BME280;43523;53.022;-1.178;2024-03-22T03:02:36;100992.20;;;6.15;100.00
57290;BME280;43523;53.022;-1.178;2024-03-22T03:03:38;100977.52;;;6.38;100.00
57290;BME280;43523;53.022;-1.178;2024-03-22T03:04:41;100985.83;;;6.25;100.00
57290;BME280;43523;53.022;-1.178;2024-03-22T03:05:44;100986.46;;;5.81;100.00
57290;BME280;43523;53.022;-1.178;2024-03-22T03:06:46;100986.37;;;5.89;100.00
57290;BME280;43523;53.022;-1.178;2024-03-22T03:07:49;100989.75;;;6.24;100.00
57290;BME280;43523;53.022;-1.178;2024-03-22T03:08:51;100993.27;;;5.86;100.00
57290;BME280;43523;53.022;-1.178;2024-03-22T03:09:54;100984.63;;;6.22;100.00
57290;BME280;43523;53.022;-1.178;2024-03-22T03:10:56;100991.22;;;6.28;100.00
57290;BME280;43523;53.022;-1.178;2024-03-22T03:11:59;100990.60;;;5.84;100.00
57290;BME280;43523;53.022;-1.178;2024-03-22T03:13:02;100992.01;;;5.64;100.00
57290;BME280;43523;53.022;-1.178;2024-03-22T03:14:04;100992.77;;;5.65;100.00
57290;BME280;43523;53.022;-1.178;2024-03-22T03:15:07;100997.48;;;6.23;100.00
57290;BME280;43523;53.022;-1.178;2024-03-22T03:16:10;100996.64;;;6.64;100.00
57290;BME280;43523;53.022;-1.178;2024-03-22T03:17:12;101001.83;;;5.90;100.00
57290;BME280;43523;53.022;-1.178;2024-03-22T03:18:14;100999.05;;;5.95;100.00
57290;BME280;43523;53.022;-1.178;2024-03-22T03:19:17;100998.12;;;5.47;100.00
57290;BME280;43523;53.022;-1.178;2024-03-22T03:20:19;101011.05;;;5.68;100.00
57290;BME280;43523;53.022;-1.178;2024-03-22T03:21:22;101007.95;;;5.93;100.00
57290;BME280;43523;53.022;-1.178;2024-03-22T03:22:24;101011.15;;;6.05;100.00
57290;BME280;43523;53.022;-1.178;2024-03-22T03:23:27;101007.45;;;5.52;100.00
57290;BME280;43523;53.022;-1.178;2024-03-22T03:24:29;101008.78;;;5.50;100.00
57290;BME280;43523;53.022;-1.178;2024-03-22T03:25:31;101009.63;;;5.69;100.00
57290;BME280;43523;53.022;-1.178;2024-03-22T03:26:34;101004.42;;;5.61;100.00
57290;BME280;43523;53.022;-1.178;2024-03-22T03:27:36;101002.66;;;5.36;100.00
57290;BME280;43523;53.022;-1.178;2024-03-22T03:28:39;101004.77;;;4.99;100.00
57290;BME280;43523;53.022;-1.178;2024-03-22T03:29:42;100999.96;;;5.28;100.00
57290;BME280;43523;53.022;-1.178;2024-03-22T03:30:44;101011.35;;;4.87;100.00
57290;BME280;43523;53.022;-1.178;2024-03-22T03:31:46;100992.23;;;5.12;100.00
57290;BME280;43523;53.022;-1.178;2024-03-22T03:32:49;100992.59;;;5.45;100.00
57290;BME280;43523;53.022;-1.178;2024-03-22T03:33:51;101002.81;;;5.70;100.00
57290;BME280;43523;53.022;-1.178;2024-03-22T03:34:54;100992.26;;;5.15;100.00
57290;BME280;43523;53.022;-1.178;2024-03-22T03:35:57;100991.88;;;4.94;100.00
57290;BME280;43523;53.022;-1.178;2024-03-22T03:36:59;100988.58;;;4.84;100.00
57290;BME280;43523;53.022;-1.178;2024-03-22T03:38:02;100986.29;;;5.08;100.00
57290;BME280;43523;53.022;-1.178;2024-03-22T03:39:04;100983.50;;;4.88;100.00
57290;BME280;43523;53.022;-1.178;2024-03-22T03:40:08;100980.93;;;4.99;100.00
57290;BME280;43523;53.022;-1.178;2024-03-22T03:41:10;100984.26;;;5.21;100.00
57290;BME280;43523;53.022;-1.178;2024-03-22T03:42:13;100982.56;;;5.17;100.00
57290;BME280;43523;53.022;-1.178;2024-03-22T03:43:16;100985.34;;;5.12;100.00
57290;BME280;43523;53.022;-1.178;2024-03-22T03:44:18;100983.85;;;5.43;100.00
57290;BME280;43523;53.022;-1.178;2024-03-22T03:45:20;100980.73;;;4.96;100.00
57290;BME280;43523;53.022;-1.178;2024-03-22T03:46:23;100981.65;;;5.43;100.00
57290;BME280;43523;53.022;-1.178;2024-03-22T03:47:25;100989.21;;;5.08;100.00
57290;BME280;43523;53.022;-1.178;2024-03-22T03:48:28;100983.67;;;5.01;100.00
57290;BME280;43523;53.022;-1.178;2024-03-22T03:49:30;100980.75;;;5.03;100.00
57290;BME280;43523;53.022;-1.178;2024-03-22T03:50:33;100977.68;;;5.12;100.00
57290;BME280;43523;53.022;-1.178;2024-03-22T03:51:35;100977.88;;;4.65;100.00
57290;BME280;43523;53.022;-1.178;2024-03-22T03:52:38;100975.52;;;4.67;100.00
57290;BME280;43523;53.022;-1.178;2024-03-22T03:53:41;100970.04;;;4.82;100.00
57290;BME280;43523;53.022;-1.178;2024-03-22T03:54:49;100964.35;;;4.90;100.00
57290;BME280;43523;53.022;-1.178;2024-03-22T03:55:56;100967.63;;;5.26;100.00
57290;BME280;43523;53.022;-1.178;2024-03-22T03:56:59;100972.30;;;4.83;100.00
57290;BME280;43523;53.022;-1.178;2024-03-22T03:58:01;100971.72;;;5.04;100.00
57290;BME280;43523;53.022;-1.178;2024-03-22T03:59:03;100971.92;;;4.91;100.00
57290;BME280;43523;53.022;-1.178;2024-03-22T04:00:07;100972.25;;;4.77;100.00
57290;BME280;43523;53.022;-1.178;2024-03-22T04:01:09;100967.26;;;4.84;100.00
57290;BME280;43523;53.022;-1.178;2024-03-22T04:02:12;100962.79;;;5.15;100.00
57290;BME280;43523;53.022;-1.178;2024-03-22T04:03:14;100963.90;;;4.74;100.00
57290;BME280;43523;53.022;-1.178;2024-03-22T04:04:16;100961.32;;;5.14;100.00
57290;BME280;43523;53.022;-1.178;2024-03-22T04:05:20;100958.72;;;5.15;100.00
57290;BME280;43523;53.022;-1.178;2024-03-22T04:06:22;100957.75;;;4.85;100.00
57290;BME280;43523;53.022;-1.178;2024-03-22T04:07:24;100958.59;;;4.91;100.00
57290;BME280;43523;53.022;-1.178;2024-03-22T04:08:28;100959.03;;;5.09;100.00
57290;BME280;43523;53.022;-1.178;2024-03-22T04:09:30;100960.14;;;5.11;100.00
57290;BME280;43523;53.022;-1.178;2024-03-22T04:10:33;100953.88;;;4.88;100.00
57290;BME280;43523;53.022;-1.178;2024-03-22T04:11:35;100951.14;;;4.93;100.00
57290;BME280;43523;53.022;-1.178;2024-03-22T04:12:37;100948.20;;;5.23;100.00
57290;BME280;43523;53.022;-1.178;2024-03-22T04:13:41;100951.01;;;5.14;100.00
57290;BME280;43523;53.022;-1.178;2024-03-22T04:14:43;100952.56;;;5.38;100.00
57290;BME280;43523;53.022;-1.178;2024-03-22T04:15:45;100953.33;;;5.30;100.00
57290;BME280;43523;53.022;-1.178;2024-03-22T04:16:48;100947.47;;;5.63;100.00
57290;BME280;43523;53.022;-1.178;2024-03-22T04:17:54;100951.55;;;5.56;100.00
57290;BME280;43523;53.022;-1.178;2024-03-22T04:18:56;100950.27;;;5.13;100.00
57290;BME280;43523;53.022;-1.178;2024-03-22T04:19:59;100946.86;;;4.88;100.00
57290;BME280;43523;53.022;-1.178;2024-03-22T04:21:01;100947.03;;;5.16;100.00
57290;BME280;43523;53.022;-1.178;2024-03-22T04:22:04;100946.48;;;4.98;100.00
57290;BME280;43523;53.022;-1.178;2024-03-22T04:23:06;100949.42;;;5.01;100.00
57290;BME280;43523;53.022;-1.178;2024-03-22T04:24:08;100944.41;;;5.22;100.00
57290;BME280;43523;53.022;-1.178;2024-03-22T04:25:11;100944.09;;;4.87;100.00
57290;BME280;43523;53.022;-1.178;2024-03-22T04:26:14;100938.64;;;5.02;100.00
57290;BME280;43523;53.022;-1.178;2024-03-22T04:27:17;100934.42;;;5.39;100.00
57290;BME280;43523;53.022;-1.178;2024-03-22T04:28:19;100931.97;;;5.20;100.00
57290;BME280;43523;53.022;-1.178;2024-03-22T04:29:21;100934.08;;;5.44;100.00
57290;BME280;43523;53.022;-1.178;2024-03-22T04:30:24;100930.64;;;5.27;100.00
57290;BME280;43523;53.022;-1.178;2024-03-22T04:31:26;100938.83;;;5.66;100.00
57290;BME280;43523;53.022;-1.178;2024-03-22T04:32:29;100935.29;;;5.38;100.00
57290;BME280;43523;53.022;-1.178;2024-03-22T04:33:32;100934.83;;;5.43;100.00
57290;BME280;43523;53.022;-1.178;2024-03-22T04:34:34;100937.77;;;5.37;100.00
57290;BME280;43523;53.022;-1.178;2024-03-22T04:35:37;100935.86;;;5.58;100.00
57290;BME280;43523;53.022;-1.178;2024-03-22T04:36:39;100940.13;;;4.99;100.00
57290;BME280;43523;53.022;-1.178;2024-03-22T04:37:42;100938.96;;;5.17;100.00
57290;BME280;43523;53.022;-1.178;2024-03-22T04:38:44;100938.32;;;5.53;100.00
57290;BME280;43523;53.022;-1.178;2024-03-22T04:39:47;100942.78;;;4.88;100.00
57290;BME280;43523;53.022;-1.178;2024-03-22T04:40:49;100945.89;;;5.05;100.00
57290;BME280;43523;53.022;-1.178;2024-03-22T04:41:52;100941.59;;;4.91;100.00
57290;BME280;43523;53.022;-1.178;2024-03-22T04:42:54;100941.94;;;5.29;100.00
57290;BME280;43523;53.022;-1.178;2024-03-22T04:43:57;100942.03;;;5.16;100.00
57290;BME280;43523;53.022;-1.178;2024-03-22T04:44:59;100935.97;;;5.00;100.00
57290;BME280;43523;53.022;-1.178;2024-03-22T04:46:01;100937.14;;;4.77;100.00
57290;BME280;43523;53.022;-1.178;2024-03-22T04:47:04;100935.31;;;4.95;100.00
57290;BME280;43523;53.022;-1.178;2024-03-22T04:48:07;100935.28;;;4.94;100.00
57290;BME280;43523;53.022;-1.178;2024-03-22T04:49:09;100934.13;;;4.87;100.00
57290;BME280;43523;53.022;-1.178;2024-03-22T04:50:12;100932.44;;;5.28;100.00
57290;BME280;43523;53.022;-1.178;2024-03-22T04:51:14;100934.48;;;4.93;100.00
57290;BME280;43523;53.022;-1.178;2024-03-22T04:52:17;100931.78;;;5.48;100.00
57290;BME280;43523;53.022;-1.178;2024-03-22T04:53:20;100933.30;;;5.58;100.00
57290;BME280;43523;53.022;-1.178;2024-03-22T04:54:22;100931.40;;;5.13;100.00
57290;BME280;43523;53.022;-1.178;2024-03-22T04:55:25;100932.04;;;5.09;100.00
57290;BME280;43523;53.022;-1.178;2024-03-22T04:56:27;100930.93;;;5.05;100.00
57290;BME280;43523;53.022;-1.178;2024-03-22T04:57:30;100931.09;;;5.46;100.00
57290;BME280;43523;53.022;-1.178;2024-03-22T04:58:32;100923.28;;;5.37;100.00
57290;BME280;43523;53.022;-1.178;2024-03-22T04:59:35;100922.01;;;5.38;100.00
57290;BME280;43523;53.022;-1.178;2024-03-22T05:00:37;100928.68;;;4.99;100.00
57290;BME280;43523;53.022;-1.178;2024-03-22T05:01:39;100925.08;;;5.39;100.00
57290;BME280;43523;53.022;-1.178;2024-03-22T05:02:42;100923.73;;;5.45;100.00
57290;BME280;43523;53.022;-1.178;2024-03-22T05:03:44;100926.21;;;5.05;100.00
57290;BME280;43523;53.022;-1.178;2024-03-22T05:04:47;100925.70;;;5.40;100.00
57290;BME280;43523;53.022;-1.178;2024-03-22T05:05:51;100927.29;;;5.41;100.00
57290;BME280;43523;53.022;-1.178;2024-03-22T05:06:53;100927.32;;;5.48;100.00
57290;BME280;43523;53.022;-1.178;2024-03-22T05:07:56;100923.62;;;5.17;100.00
57290;BME280;43523;53.022;-1.178;2024-03-22T05:08:58;100922.98;;;5.62;100.00
57290;BME280;43523;53.022;-1.178;2024-03-22T05:10:02;100921.64;;;5.37;100.00
57290;BME280;43523;53.022;-1.178;2024-03-22T05:11:05;100928.79;;;5.24;100.00
57290;BME280;43523;53.022;-1.178;2024-03-22T05:12:08;100930.13;;;5.31;100.00
57290;BME280;43523;53.022;-1.178;2024-03-22T05:13:09;100932.15;;;5.37;100.00
57290;BME280;43523;53.022;-1.178;2024-03-22T05:14:12;100934.05;;;5.24;100.00
57290;BME280;43523;53.022;-1.178;2024-03-22T05:15:14;100929.24;;;5.48;100.00
57290;BME280;43523;53.022;-1.178;2024-03-22T05:16:17;100928.25;;;5.14;100.00
57290;BME280;43523;53.022;-1.178;2024-03-22T05:17:19;100930.42;;;5.22;100.00
57290;BME280;43523;53.022;-1.178;2024-03-22T05:18:22;100929.08;;;5.23;100.00
57290;BME280;43523;53.022;-1.178;2024-03-22T05:19:24;100925.36;;;5.42;100.00
57290;BME280;43523;53.022;-1.178;2024-03-22T05:20:27;100917.54;;;5.42;100.00
57290;BME280;43523;53.022;-1.178;2024-03-22T05:21:29;100929.44;;;5.22;100.00
57290;BME280;43523;53.022;-1.178;2024-03-22T05:22:31;100927.64;;;4.86;100.00
57290;BME280;43523;53.022;-1.178;2024-03-22T05:23:34;100924.94;;;5.11;100.00
57290;BME280;43523;53.022;-1.178;2024-03-22T05:24:36;100926.61;;;5.18;100.00